KLM1472 LFMN-EHAM
Flight info
| Callsign | KLM1472 |
|---|---|
| Flight time | N/A |
| Altitude | 36000 |
| Route | IRMAR DCT KINES DCT VANAS DCT MOBLO DCT UBIMA DCT GILIR DCT PENDU DCT IXILU DCT EPL DCT ROUSY DCT BUB Y28 HELEN |
| Aircraft | B738/M-SDE2E3FGHIRWXY/LB1 |
Departure
| Time | 2026-05-05 17:10 |
|---|---|
| Airport | Nice-Côte d'Azur Airport (LFMN) |
Arrival
| Time | N/A |
|---|---|
| Airport | Amsterdam Airport Schiphol (EHAM) |
| Time | Latitude | Longitude | Altitude | Speed | Heading |
|---|---|---|---|---|---|
| 2026-05-05 16:47 | 43.66419 | 7.21605 | 20 ft | 0 kts | 45° |
| 2026-05-05 17:05 | 43.66412 | 7.21593 | 20 ft | 4 kts | 52° |
| 2026-05-05 17:05 | 43.66404 | 7.21577 | 20 ft | 4 kts | 59° |
| 2026-05-05 17:05 | 43.66395 | 7.21554 | 20 ft | 4 kts | 69° |
| 2026-05-05 17:05 | 43.66391 | 7.21533 | 20 ft | 0 kts | 88° |
| 2026-05-05 17:06 | 43.66391 | 7.21534 | 20 ft | 1 kts | 90° |
| 2026-05-05 17:06 | 43.66372 | 7.21563 | 20 ft | 8 kts | 149° |
| 2026-05-05 17:06 | 43.66303 | 7.21599 | 20 ft | 11 kts | 182° |
| 2026-05-05 17:06 | 43.66234 | 7.21539 | 20 ft | 16 kts | 221° |
| 2026-05-05 17:07 | 43.66129 | 7.21398 | 20 ft | 24 kts | 225° |
| 2026-05-05 17:07 | 43.66024 | 7.21255 | 20 ft | 19 kts | 224° |
| 2026-05-05 17:07 | 43.65910 | 7.21101 | 20 ft | 28 kts | 225° |
| 2026-05-05 17:07 | 43.65777 | 7.20910 | 20 ft | 25 kts | 226° |
| 2026-05-05 17:08 | 43.65667 | 7.20755 | 20 ft | 20 kts | 225° |
| 2026-05-05 17:08 | 43.65552 | 7.20595 | 20 ft | 27 kts | 225° |
| 2026-05-05 17:08 | 43.65424 | 7.20418 | 20 ft | 23 kts | 224° |
| 2026-05-05 17:08 | 43.65328 | 7.20305 | 20 ft | 16 kts | 198° |
| 2026-05-05 17:09 | 43.65222 | 7.20378 | 20 ft | 19 kts | 128° |
| 2026-05-05 17:09 | 43.65237 | 7.20478 | 20 ft | 8 kts | 45° |
| 2026-05-05 17:09 | 43.65306 | 7.20574 | 20 ft | 29 kts | 45° |
| 2026-05-05 17:09 | 43.65647 | 7.21051 | 20 ft | 109 kts | 45° |
| 2026-05-05 17:10 | 43.66349 | 7.22043 | 174 ft | 164 kts | 48° |
| 2026-05-05 17:10 | 43.67095 | 7.23220 | 1092 ft | 167 kts | 64° |
| 2026-05-05 17:10 | 43.67265 | 7.24840 | 1787 ft | 184 kts | 98° |
| 2026-05-05 17:10 | 43.66695 | 7.26536 | 2136 ft | 213 kts | 128° |
| 2026-05-05 17:11 | 43.65565 | 7.27934 | 2954 ft | 217 kts | 145° |
| 2026-05-05 17:11 | 43.64343 | 7.29183 | 3814 ft | 225 kts | 144° |
| 2026-05-05 17:11 | 43.63032 | 7.30526 | 4421 ft | 245 kts | 145° |
| 2026-05-05 17:11 | 43.61498 | 7.31617 | 5111 ft | 255 kts | 168° |
| 2026-05-05 17:12 | 43.59737 | 7.31660 | 6016 ft | 254 kts | 194° |
| 2026-05-05 17:12 | 43.58141 | 7.30685 | 6980 ft | 252 kts | 216° |
| 2026-05-05 17:12 | 43.56750 | 7.29221 | 7955 ft | 254 kts | 218° |
| 2026-05-05 17:12 | 43.55518 | 7.27506 | 8863 ft | 254 kts | 238° |
| 2026-05-05 17:13 | 43.54953 | 7.25210 | 9800 ft | 255 kts | 265° |
| 2026-05-05 17:13 | 43.55129 | 7.22793 | 10712 ft | 258 kts | 283° |
| 2026-05-05 17:13 | 43.55916 | 7.20557 | 11568 ft | 266 kts | 302° |
| 2026-05-05 17:13 | 43.57150 | 7.18620 | 12442 ft | 270 kts | 309° |
| 2026-05-05 17:14 | 43.58451 | 7.16716 | 13261 ft | 273 kts | 308° |
| 2026-05-05 17:14 | 43.59307 | 7.15402 | 13827 ft | 274 kts | 307° |
| 2026-05-05 17:14 | 43.60710 | 7.13586 | 14546 ft | 286 kts | 316° |
| 2026-05-05 17:14 | 43.62411 | 7.12024 | 15077 ft | 302 kts | 325° |
| 2026-05-05 17:15 | 43.64358 | 7.10840 | 15822 ft | 312 kts | 335° |
| 2026-05-05 17:15 | 43.66470 | 7.09925 | 16347 ft | 326 kts | 338° |
| 2026-05-05 17:15 | 43.68728 | 7.09036 | 16615 ft | 347 kts | 339° |
| 2026-05-05 17:15 | 43.71093 | 7.08083 | 16861 ft | 366 kts | 338° |
| 2026-05-05 17:16 | 43.73608 | 7.07041 | 17168 ft | 382 kts | 338° |
| 2026-05-05 17:16 | 43.76197 | 7.05945 | 17737 ft | 389 kts | 338° |
| 2026-05-05 17:16 | 43.78736 | 7.04853 | 18559 ft | 386 kts | 337° |
| 2026-05-05 17:16 | 43.81297 | 7.03739 | 19467 ft | 385 kts | 337° |
| 2026-05-05 17:17 | 43.83908 | 7.02598 | 19693 ft | 402 kts | 337° |
| 2026-05-05 17:17 | 43.86622 | 7.01417 | 20060 ft | 413 kts | 337° |
| 2026-05-05 17:17 | 43.89356 | 7.00216 | 20688 ft | 415 kts | 336° |
| 2026-05-05 17:17 | 43.92114 | 6.98996 | 21341 ft | 417 kts | 336° |
| 2026-05-05 17:18 | 43.94861 | 6.97775 | 21953 ft | 419 kts | 336° |
| 2026-05-05 17:18 | 43.97645 | 6.96534 | 22547 ft | 421 kts | 336° |
| 2026-05-05 17:18 | 44.00494 | 6.95260 | 23132 ft | 424 kts | 335° |
| 2026-05-05 17:18 | 44.03251 | 6.94026 | 23679 ft | 426 kts | 335° |
| 2026-05-05 17:19 | 44.06085 | 6.92754 | 24252 ft | 427 kts | 335° |
| 2026-05-05 17:19 | 44.08923 | 6.91481 | 24733 ft | 431 kts | 335° |
| 2026-05-05 17:19 | 44.11815 | 6.90189 | 25237 ft | 434 kts | 336° |
| 2026-05-05 17:19 | 44.14731 | 6.89139 | 25546 ft | 446 kts | 342° |
| 2026-05-05 17:20 | 44.17821 | 6.88449 | 25852 ft | 456 kts | 347° |
| 2026-05-05 17:20 | 44.20995 | 6.87947 | 26344 ft | 458 kts | 348° |
| 2026-05-05 17:20 | 44.24170 | 6.87492 | 26750 ft | 461 kts | 348° |
| 2026-05-05 17:20 | 44.27377 | 6.87024 | 27144 ft | 464 kts | 348° |
| 2026-05-05 17:21 | 44.30592 | 6.86548 | 27531 ft | 467 kts | 348° |
| 2026-05-05 17:21 | 44.33804 | 6.86067 | 27827 ft | 472 kts | 348° |
| 2026-05-05 17:21 | 44.37100 | 6.85570 | 28199 ft | 474 kts | 348° |
| 2026-05-05 17:22 | 44.43700 | 6.84568 | 28893 ft | 479 kts | 348° |
| 2026-05-05 17:22 | 44.47041 | 6.84059 | 29253 ft | 481 kts | 348° |
| 2026-05-05 17:22 | 44.50360 | 6.83558 | 29564 ft | 484 kts | 348° |
| 2026-05-05 17:22 | 44.53695 | 6.83051 | 29873 ft | 486 kts | 348° |
| 2026-05-05 17:23 | 44.57071 | 6.82536 | 30207 ft | 487 kts | 348° |
| 2026-05-05 17:23 | 44.60414 | 6.82023 | 30656 ft | 486 kts | 347° |
| 2026-05-05 17:23 | 44.63802 | 6.81502 | 31130 ft | 484 kts | 347° |
| 2026-05-05 17:23 | 44.67161 | 6.80985 | 31520 ft | 484 kts | 347° |
| 2026-05-05 17:24 | 44.70479 | 6.80473 | 31930 ft | 483 kts | 347° |
| 2026-05-05 17:24 | 44.72361 | 6.80182 | 32050 ft | 485 kts | 347° |
| 2026-05-05 17:24 | 44.75727 | 6.79662 | 32345 ft | 486 kts | 347° |
| 2026-05-05 17:24 | 44.79125 | 6.79136 | 32806 ft | 484 kts | 347° |
| 2026-05-05 17:25 | 44.82461 | 6.78709 | 33170 ft | 486 kts | 350° |
| 2026-05-05 17:25 | 44.84743 | 6.78538 | 33447 ft | 485 kts | 351° |
| 2026-05-05 17:25 | 44.89193 | 6.78304 | 33994 ft | 483 kts | 351° |
| 2026-05-05 17:25 | 44.91344 | 6.78187 | 34253 ft | 482 kts | 351° |